createdAt,value
2022-12-07T00:00:28.197Z,9.98
2022-12-07T00:05:30.846Z,9.50
2022-12-07T00:10:35.211Z,7.80
2022-12-07T00:15:36.851Z,8.05
2022-12-07T00:20:38.513Z,8.73
2022-12-07T00:25:40.243Z,11.98
2022-12-07T00:30:41.905Z,9.10
2022-12-07T00:35:43.661Z,9.45
2022-12-07T00:40:45.331Z,7.97
2022-12-07T00:45:46.986Z,10.85
2022-12-07T00:50:49.041Z,7.53
2022-12-07T00:55:50.902Z,8.30
2022-12-07T01:00:52.659Z,8.88
2022-12-07T01:05:56.210Z,7.65
2022-12-07T01:11:08.086Z,9.85
2022-12-07T01:16:12.228Z,8.50
2022-12-07T01:21:20.129Z,10.27
2022-12-07T01:26:24.461Z,7.63
2022-12-07T01:31:27.754Z,8.80
2022-12-07T01:36:35.764Z,8.02
2022-12-07T01:41:41.553Z,10.15
2022-12-07T01:47:04.207Z,7.93
2022-12-07T01:52:05.859Z,8.95
2022-12-07T01:57:09.861Z,7.95
2022-12-07T02:02:34.419Z,7.63
2022-12-07T02:07:39.104Z,8.00
2022-12-07T02:12:41.215Z,10.50
2022-12-07T02:18:07.866Z,8.10
2022-12-07T02:23:40.665Z,8.88
2022-12-07T02:28:51.066Z,7.75
2022-12-07T02:34:05.877Z,8.52
2022-12-07T02:39:15.980Z,8.23
2022-12-07T02:44:22.448Z,7.45
2022-12-07T02:49:27.826Z,8.63
2022-12-07T02:54:29.587Z,10.60
2022-12-07T02:59:34.248Z,9.10
2022-12-07T03:05:24.234Z,8.13
2022-12-07T03:10:30.071Z,6.53
2022-12-07T03:15:50.374Z,6.57
2022-12-07T03:20:56.927Z,8.82
2022-12-07T03:26:01.960Z,9.63
2022-12-07T03:31:14.462Z,8.57
2022-12-07T03:36:27.764Z,8.05
2022-12-07T03:41:33.990Z,7.43
2022-12-07T03:47:04.152Z,9.88
2022-12-07T03:52:27.107Z,4.85
2022-12-07T03:57:31.790Z,6.50
2022-12-07T04:02:34.284Z,7.30
2022-12-07T04:07:36.106Z,9.82
2022-12-07T04:12:37.981Z,7.85
2022-12-07T04:17:39.652Z,7.05
2022-12-07T04:22:41.615Z,6.82
2022-12-07T04:27:43.317Z,8.52
2022-12-07T04:32:44.980Z,6.82
2022-12-07T04:37:46.673Z,6.85
2022-12-07T04:42:48.283Z,4.45
2022-12-07T04:47:49.931Z,3.92
2022-12-07T04:52:51.571Z,5.10
2022-12-07T04:57:53.222Z,8.20
2022-12-07T05:02:54.804Z,5.97
2022-12-07T05:07:56.436Z,5.88
2022-12-07T05:12:58.136Z,5.18
2022-12-07T05:17:59.903Z,6.40
2022-12-07T05:23:01.670Z,6.03
2022-12-07T05:28:03.889Z,5.75
2022-12-07T05:33:06.309Z,6.22
2022-12-07T05:38:07.962Z,5.15
2022-12-07T05:43:09.614Z,7.60
2022-12-07T05:48:11.356Z,6.15
2022-12-07T05:53:13.002Z,3.85
2022-12-07T05:58:33.509Z,5.05
2022-12-07T06:03:35.251Z,5.57
2022-12-07T06:08:36.969Z,8.57
2022-12-07T06:13:42.461Z,4.82
2022-12-07T06:18:48.645Z,6.32
2022-12-07T06:23:50.340Z,9.10
2022-12-07T06:28:52.094Z,7.82
2022-12-07T06:34:01.987Z,8.30
2022-12-07T06:39:04.555Z,6.97
2022-12-07T06:44:07.203Z,6.88
2022-12-07T06:49:09.053Z,7.28
2022-12-07T06:54:12.401Z,7.70
2022-12-07T06:59:14.113Z,8.77
2022-12-07T07:04:15.802Z,7.85
2022-12-07T07:09:17.502Z,19.95
2022-12-07T07:14:20.466Z,9.25
2022-12-07T07:19:22.188Z,14.93
2022-12-07T07:24:23.836Z,8.32
2022-12-07T07:29:25.476Z,10.77
2022-12-07T07:34:27.157Z,8.63
2022-12-07T07:39:28.809Z,7.63
2022-12-07T07:44:35.058Z,7.70
2022-12-07T07:54:39.623Z,10.13
2022-12-07T07:59:41.288Z,9.23
2022-12-07T08:04:43.184Z,7.97
2022-12-07T08:09:44.930Z,7.72
2022-12-07T08:14:46.541Z,7.70
2022-12-07T08:19:48.296Z,8.40
2022-12-07T08:24:49.988Z,6.20
2022-12-07T08:29:51.720Z,5.25
2022-12-07T08:34:53.687Z,4.32
2022-12-07T08:39:55.495Z,5.03
2022-12-07T08:44:58.731Z,5.25
2022-12-07T08:50:04.756Z,9.35
2022-12-07T08:55:07.588Z,6.25
2022-12-07T09:00:10.297Z,8.60
2022-12-07T09:05:16.544Z,6.07
2022-12-07T09:15:20.835Z,6.13
2022-12-07T09:20:27.543Z,7.15
2022-12-07T09:25:29.399Z,5.55
2022-12-07T09:30:31.073Z,9.40
2022-12-07T09:35:32.870Z,7.57
2022-12-07T09:40:34.920Z,6.53
2022-12-07T09:45:38.193Z,6.38
2022-12-07T09:50:41.036Z,6.65
2022-12-07T09:55:44.243Z,9.05
2022-12-07T10:00:46.571Z,9.30
2022-12-07T10:05:51.787Z,9.30
2022-12-07T10:10:56.893Z,7.70
2022-12-07T10:16:06.314Z,7.35
2022-12-07T10:21:21.737Z,7.82
2022-12-07T10:26:48.452Z,6.45
2022-12-07T10:32:16.182Z,7.95
2022-12-07T10:37:20.865Z,6.88
2022-12-07T10:42:22.440Z,6.70
2022-12-07T10:47:37.811Z,7.10
2022-12-07T10:52:51.311Z,7.03
2022-12-07T10:57:58.931Z,7.97
2022-12-07T11:03:06.642Z,7.78
2022-12-07T11:08:41.339Z,8.23
2022-12-07T11:14:10.025Z,5.78
2022-12-07T11:19:55.954Z,6.75
2022-12-07T11:25:27.165Z,7.50
2022-12-07T11:31:00.818Z,7.18
2022-12-07T11:36:31.794Z,5.97
2022-12-07T11:41:38.873Z,6.45
2022-12-07T11:46:55.602Z,8.25
2022-12-07T11:52:03.454Z,5.68
2022-12-07T11:57:18.471Z,7.50
2022-12-07T12:18:56.579Z,7.03
2022-12-07T12:24:24.189Z,6.53
2022-12-07T12:29:37.321Z,7.10
2022-12-07T12:34:46.632Z,6.60
2022-12-07T12:40:13.459Z,9.43
2022-12-07T12:45:27.199Z,7.38
2022-12-07T12:50:39.298Z,7.82
2022-12-07T12:55:44.135Z,8.80
2022-12-07T13:00:47.327Z,7.20
2022-12-07T13:05:49.204Z,9.02
2022-12-07T13:10:50.947Z,8.23
2022-12-07T13:16:07.903Z,11.52
2022-12-07T13:21:09.541Z,9.43
2022-12-07T13:26:35.481Z,11.45
2022-12-07T13:32:03.654Z,11.60
2022-12-07T13:37:38.553Z,10.40
2022-12-07T13:42:40.690Z,10.13
2022-12-07T13:47:53.569Z,10.05
2022-12-07T13:53:00.080Z,12.77
2022-12-07T13:58:01.923Z,11.30
2022-12-07T14:03:21.473Z,11.05
2022-12-07T14:08:24.152Z,9.95
2022-12-07T14:13:42.107Z,10.57
2022-12-07T14:18:43.853Z,10.60
2022-12-07T14:23:46.264Z,13.90
2022-12-07T14:28:48.632Z,11.85
2022-12-07T14:33:50.476Z,10.73
2022-12-07T14:38:54.429Z,12.13
2022-12-07T14:44:21.800Z,11.45
2022-12-07T14:49:34.100Z,15.27
2022-12-07T14:54:36.275Z,10.25
2022-12-07T14:59:43.274Z,12.00
2022-12-07T15:04:46.717Z,11.68
2022-12-07T15:09:49.336Z,12.57
2022-12-07T15:14:52.014Z,14.82
2022-12-07T15:19:53.644Z,13.00
2022-12-07T15:24:55.315Z,12.65
2022-12-07T15:29:57.006Z,12.73
2022-12-07T15:34:58.813Z,14.95
2022-12-07T15:40:07.201Z,13.63
2022-12-07T15:45:10.293Z,13.88
2022-12-07T15:50:15.062Z,13.73
2022-12-07T15:55:16.788Z,11.35
2022-12-07T16:00:19.122Z,9.88
2022-12-07T16:05:20.857Z,12.27
2022-12-07T16:10:22.635Z,14.57
2022-12-07T16:15:25.703Z,10.63
2022-12-07T16:20:42.502Z,10.20
2022-12-07T16:25:55.249Z,11.05
2022-12-07T16:31:17.235Z,13.38
2022-12-07T16:36:39.851Z,12.63
2022-12-07T16:41:40.976Z,12.35
2022-12-07T16:46:43.318Z,13.82
2022-12-07T16:51:45.236Z,12.18
2022-12-07T16:56:46.943Z,13.40
2022-12-07T17:01:48.734Z,14.27
2022-12-07T17:06:50.373Z,13.43
2022-12-07T17:11:52.379Z,13.90
2022-12-07T17:16:54.287Z,12.23
2022-12-07T17:21:56.122Z,11.95
2022-12-07T17:26:58.176Z,16.92
2022-12-07T17:32:00.360Z,14.50
2022-12-07T17:37:02.373Z,14.80
2022-12-07T17:42:22.716Z,15.00
2022-12-07T17:47:24.662Z,13.70
2022-12-07T17:52:47.987Z,14.48
2022-12-07T17:57:50.322Z,15.55
2022-12-07T18:02:52.431Z,15.70
2022-12-07T18:07:55.615Z,12.82
2022-12-07T18:13:18.203Z,11.68
2022-12-07T18:18:20.081Z,15.80
2022-12-07T18:23:22.655Z,15.30
2022-12-07T18:28:24.670Z,13.75
2022-12-07T18:33:27.197Z,16.13
2022-12-07T18:38:30.109Z,17.02
2022-12-07T18:43:32.076Z,12.68
2022-12-07T18:48:34.239Z,11.75
2022-12-07T18:53:37.228Z,14.52
2022-12-07T18:59:00.567Z,16.60
2022-12-07T19:04:03.096Z,14.75
2022-12-07T19:09:05.834Z,12.98
2022-12-07T19:14:08.042Z,13.27
2022-12-07T19:19:10.622Z,12.45
2022-12-07T19:24:15.146Z,13.65
2022-12-07T19:29:19.952Z,11.75
2022-12-07T19:34:22.281Z,13.38
2022-12-07T19:39:26.474Z,15.18
2022-12-07T19:44:30.486Z,14.02
2022-12-07T19:49:36.830Z,16.77
2022-12-07T19:54:40.300Z,15.73
2022-12-07T19:59:43.704Z,14.10
2022-12-07T20:04:46.352Z,12.43
2022-12-07T20:09:48.569Z,13.35
2022-12-07T20:14:52.648Z,12.20
2022-12-07T20:19:55.110Z,13.90
2022-12-07T20:24:57.652Z,11.80
2022-12-07T20:30:01.494Z,11.52
2022-12-07T20:35:03.905Z,13.00
2022-12-07T20:40:07.713Z,13.68
2022-12-07T20:45:11.491Z,13.38
2022-12-07T20:50:13.564Z,13.05
2022-12-07T20:55:15.953Z,14.80
2022-12-07T21:00:19.837Z,13.02
2022-12-07T21:05:21.985Z,12.38
2022-12-07T21:10:23.962Z,14.13
2022-12-07T21:15:25.682Z,14.57
2022-12-07T21:20:27.394Z,15.55
2022-12-07T21:25:29.064Z,17.48
2022-12-07T21:30:40.517Z,13.68
2022-12-07T21:35:52.396Z,16.88
2022-12-07T21:40:54.035Z,13.02
2022-12-07T21:45:55.819Z,15.77
2022-12-07T21:51:04.763Z,14.25
2022-12-07T21:56:15.622Z,15.23
2022-12-07T22:01:18.463Z,18.48
2022-12-07T22:06:23.950Z,15.77
2022-12-07T22:11:25.621Z,18.17
2022-12-07T22:16:28.054Z,16.48
2022-12-07T22:21:30.723Z,19.50
2022-12-07T22:26:32.987Z,16.73
2022-12-07T22:31:35.035Z,17.00
2022-12-07T22:36:36.934Z,20.15
2022-12-07T22:41:39.047Z,20.35
2022-12-07T22:46:41.436Z,19.60
2022-12-07T22:51:44.735Z,20.20
2022-12-07T22:56:46.474Z,19.55
2022-12-07T23:01:48.432Z,21.38
2022-12-07T23:06:50.070Z,23.70
2022-12-07T23:12:10.376Z,23.10
2022-12-07T23:17:12.012Z,25.20
2022-12-07T23:22:13.723Z,22.63
2022-12-07T23:27:15.358Z,22.77
2022-12-07T23:32:17.088Z,22.38
2022-12-07T23:37:18.834Z,21.55
2022-12-07T23:42:20.437Z,24.38
2022-12-07T23:47:22.092Z,25.70
2022-12-07T23:52:23.730Z,24.23
2022-12-07T23:57:25.410Z,25.40
